createdAt,value
2018-12-09T00:02:22.905Z,98861.80
2018-12-09T00:04:51.342Z,98861.27
2018-12-09T00:07:19.033Z,98850.47
2018-12-09T00:09:47.658Z,98846.78
2018-12-09T00:12:15.267Z,98830.33
2018-12-09T00:14:43.666Z,98830.33
2018-12-09T00:17:11.285Z,98809.91
2018-12-09T00:19:39.803Z,98804.92
2018-12-09T00:22:08.390Z,98805.86
2018-12-09T00:24:36.935Z,98791.80
2018-12-09T00:27:05.460Z,98797.36
2018-12-09T00:29:33.936Z,98785.99
2018-12-09T00:32:01.575Z,98778.12
2018-12-09T00:34:30.146Z,98769.38
2018-12-09T00:36:57.751Z,98759.92
2018-12-09T00:39:26.278Z,98757.83
2018-12-09T00:41:53.924Z,98751.33
2018-12-09T00:44:21.538Z,98739.42
2018-12-09T00:46:49.226Z,98737.32
2018-12-09T00:49:16.891Z,98729.07
2018-12-09T00:51:45.288Z,98726.67
2018-12-09T00:54:12.930Z,98720.95
2018-12-09T00:56:41.470Z,98723.34
2018-12-09T00:59:10.028Z,98711.61
2018-12-09T01:01:37.642Z,98703.01
2018-12-09T01:04:05.297Z,98711.59
2018-12-09T01:06:33.511Z,98694.06
2018-12-09T01:09:01.500Z,98694.42
2018-12-09T01:11:29.130Z,98682.88
2018-12-09T01:13:56.747Z,98670.41
2018-12-09T01:16:25.212Z,98662.45
2018-12-09T01:18:52.831Z,98661.36
2018-12-09T01:21:20.442Z,98656.91
2018-12-09T01:23:48.972Z,98657.75
2018-12-09T01:26:17.443Z,98651.09
2018-12-09T01:28:45.882Z,98641.77
2018-12-09T01:31:14.413Z,98640.37
2018-12-09T01:33:42.839Z,98634.57
2018-12-09T01:36:11.248Z,98628.47
2018-12-09T01:38:38.874Z,98607.58
2018-12-09T01:41:07.414Z,98597.23
2018-12-09T01:43:35.051Z,98587.36
2018-12-09T01:46:04.613Z,98587.17
2018-12-09T01:48:32.803Z,98578.11
2018-12-09T01:51:00.435Z,98569.71
2018-12-09T01:53:40.019Z,98560.19
2018-12-09T01:56:08.568Z,98563.81
2018-12-09T01:58:37.111Z,98555.66
2018-12-09T02:01:05.676Z,98555.48
2018-12-09T02:03:34.222Z,98544.20
2018-12-09T02:06:02.840Z,98530.01
2018-12-09T02:08:31.421Z,98534.79
2018-12-09T02:10:59.594Z,98519.02
2018-12-09T02:13:28.152Z,98526.59
2018-12-09T02:15:56.664Z,98516.69
2018-12-09T02:18:24.291Z,98516.89
2018-12-09T02:20:52.617Z,98510.22
2018-12-09T02:23:21.090Z,98500.34
2018-12-09T02:25:48.771Z,98502.02
2018-12-09T02:28:17.537Z,98500.16
2018-12-09T02:30:45.163Z,98492.47
2018-12-09T02:33:13.994Z,98488.77
2018-12-09T02:35:47.230Z,98479.34
2018-12-09T02:38:15.692Z,98475.83
2018-12-09T02:40:44.265Z,98469.42
2018-12-09T02:43:12.825Z,98456.53
2018-12-09T02:45:41.417Z,98457.55
2018-12-09T02:48:09.051Z,98445.25
2018-12-09T02:50:37.632Z,98441.35
2018-12-09T02:53:05.338Z,98444.66
2018-12-09T02:55:33.935Z,98437.61
2018-12-09T02:58:02.478Z,98436.61
2018-12-09T03:00:31.407Z,98434.83
2018-12-09T03:03:00.044Z,98424.66
2018-12-09T03:05:28.669Z,98424.97
2018-12-09T03:07:57.219Z,98417.86
2018-12-09T03:10:25.797Z,98412.58
2018-12-09T03:12:53.444Z,98413.32
2018-12-09T03:15:21.997Z,98406.95
2018-12-09T03:17:50.795Z,98409.19
2018-12-09T03:20:18.480Z,98404.70
2018-12-09T03:22:46.883Z,98402.42
2018-12-09T03:25:14.497Z,98403.44
2018-12-09T03:27:43.055Z,98396.61
2018-12-09T03:30:11.461Z,98400.55
2018-12-09T03:32:40.108Z,98395.48
2018-12-09T03:35:08.717Z,98394.35
2018-12-09T03:37:37.171Z,98381.22
2018-12-09T03:40:06.237Z,98384.94
2018-12-09T03:42:34.832Z,98383.73
2018-12-09T03:45:05.329Z,98376.72
2018-12-09T03:47:33.833Z,98374.64
2018-12-09T03:50:01.472Z,98374.89
2018-12-09T03:52:30.054Z,98374.38
2018-12-09T03:54:58.635Z,98368.49
2018-12-09T03:57:26.556Z,98365.98
2018-12-09T03:59:57.075Z,98358.73
2018-12-09T04:02:24.749Z,98358.27
2018-12-09T04:04:52.375Z,98355.83
2018-12-09T04:07:20.016Z,98350.92
2018-12-09T04:09:47.649Z,98352.84
2018-12-09T04:12:15.296Z,98347.66
2018-12-09T04:14:42.935Z,98360.69
2018-12-09T04:17:11.390Z,98365.20
2018-12-09T04:19:39.015Z,98362.25
2018-12-09T04:22:06.762Z,98347.34
2018-12-09T04:24:34.501Z,98347.14
2018-12-09T04:27:02.595Z,98353.21
2018-12-09T04:29:30.241Z,98351.91
2018-12-09T04:31:57.881Z,98345.47
2018-12-09T04:34:25.498Z,98356.42
2018-12-09T04:36:53.131Z,98357.33
2018-12-09T04:39:21.114Z,98355.78
2018-12-09T04:41:48.740Z,98361.46
2018-12-09T04:44:16.413Z,98357.28
2018-12-09T04:46:44.035Z,98355.87
2018-12-09T04:49:11.679Z,98358.42
2018-12-09T04:51:52.301Z,98356.19
2018-12-09T04:54:19.946Z,98354.69
2018-12-09T04:56:47.648Z,98354.69
2018-12-09T04:59:19.861Z,98359.02
2018-12-09T05:01:48.382Z,98352.01
2018-12-09T05:04:16.083Z,98359.61
2018-12-09T05:06:43.791Z,98361.87
2018-12-09T05:09:12.285Z,98362.20
2018-12-09T05:11:40.724Z,98359.52
2018-12-09T05:14:09.044Z,98355.95
2018-12-09T05:16:37.533Z,98348.98
2018-12-09T05:19:06.010Z,98362.67
2018-12-09T05:21:34.892Z,98362.67
2018-12-09T05:24:04.607Z,98360.91
2018-12-09T05:26:33.919Z,98362.81
2018-12-09T05:29:02.516Z,98373.45
2018-12-09T05:31:32.811Z,98365.77
2018-12-09T05:34:01.401Z,98366.14
2018-12-09T05:36:29.229Z,98361.78
2018-12-09T05:38:57.837Z,98369.21
2018-12-09T05:41:25.595Z,98356.27
2018-12-09T05:43:53.921Z,98370.27
2018-12-09T05:46:22.512Z,98370.56
2018-12-09T05:48:50.138Z,98372.80
2018-12-09T05:51:17.799Z,98371.53
2018-12-09T05:53:46.393Z,98386.23
2018-12-09T05:56:14.010Z,98380.45
2018-12-09T05:58:42.615Z,98383.38
2018-12-09T06:01:11.205Z,98380.13
2018-12-09T06:03:39.772Z,98386.73
2018-12-09T06:06:08.190Z,98388.98
2018-12-09T06:08:35.848Z,98393.34
2018-12-09T06:11:04.802Z,98404.56
2018-12-09T06:13:34.408Z,98396.37
2018-12-09T06:16:03.689Z,98394.01
2018-12-09T06:18:33.474Z,98397.31
2018-12-09T06:21:02.271Z,98406.57
2018-12-09T06:23:32.874Z,98398.28
2018-12-09T06:26:00.537Z,98406.41
2018-12-09T06:28:28.221Z,98405.35
2018-12-09T06:30:55.839Z,98407.51
2018-12-09T06:33:23.534Z,98410.97
2018-12-09T06:35:51.594Z,98408.91
2018-12-09T06:38:19.262Z,98422.63
2018-12-09T06:40:47.067Z,98414.61
2018-12-09T06:43:14.731Z,98425.09
2018-12-09T06:45:42.413Z,98432.88
2018-12-09T06:48:11.238Z,98426.59
2018-12-09T06:50:38.880Z,98421.88
2018-12-09T06:53:06.541Z,98429.34
2018-12-09T06:55:34.982Z,98435.34
2018-12-09T06:58:02.691Z,98428.67
2018-12-09T07:00:31.574Z,98434.98
2018-12-09T07:02:59.217Z,98438.20
2018-12-09T07:05:26.912Z,98447.16
2018-12-09T07:07:55.336Z,98457.28
2018-12-09T07:10:23.769Z,98458.04
2018-12-09T07:12:51.445Z,98459.45
2018-12-09T07:15:19.870Z,98475.04
2018-12-09T07:17:47.570Z,98471.51
2018-12-09T07:20:15.180Z,98482.62
2018-12-09T07:22:43.762Z,98502.52
2018-12-09T07:25:11.394Z,98505.42
2018-12-09T07:27:39.974Z,98498.73
2018-12-09T07:30:08.669Z,98507.25
2018-12-09T07:32:36.359Z,98516.53
2018-12-09T07:35:04.277Z,98517.66
2018-12-09T07:37:32.082Z,98532.08
2018-12-09T07:40:00.687Z,98527.75
2018-12-09T07:42:28.325Z,98535.98
2018-12-09T07:44:56.830Z,98540.34
2018-12-09T07:47:24.466Z,98545.27
2018-12-09T07:49:53.587Z,98550.84
2018-12-09T07:52:21.288Z,98550.08
2018-12-09T07:54:48.915Z,98551.67
2018-12-09T07:57:17.663Z,98566.28
2018-12-09T07:59:45.276Z,98561.15
2018-12-09T08:02:13.691Z,98564.73
2018-12-09T08:04:41.304Z,98578.22
2018-12-09T08:07:09.721Z,98580.22
2018-12-09T08:09:37.332Z,98580.06
2018-12-09T08:12:05.913Z,98580.38
2018-12-09T08:14:35.243Z,98593.33
2018-12-09T08:17:03.878Z,98593.14
2018-12-09T08:19:31.497Z,98593.80
2018-12-09T08:22:00.064Z,98596.83
2018-12-09T08:24:28.609Z,98595.26
2018-12-09T08:26:57.063Z,98600.72
2018-12-09T08:29:24.735Z,98598.55
2018-12-09T08:31:52.361Z,98608.59
2018-12-09T08:34:21.012Z,98610.41
2018-12-09T08:36:49.560Z,98604.33
2018-12-09T08:39:17.183Z,98613.80
2018-12-09T08:41:44.812Z,98619.98
2018-12-09T08:44:12.608Z,98620.31
2018-12-09T08:46:40.312Z,98627.95
2018-12-09T08:49:07.945Z,98630.45
2018-12-09T08:51:35.575Z,98645.48
2018-12-09T08:54:04.037Z,98645.63
2018-12-09T08:56:32.694Z,98647.13
2018-12-09T08:59:00.315Z,98660.42
2018-12-09T09:01:28.864Z,98657.72
2018-12-09T09:03:56.504Z,98672.24
2018-12-09T09:06:24.958Z,98666.65
2018-12-09T09:08:53.403Z,98674.72
2018-12-09T09:11:21.289Z,98682.97
2018-12-09T09:13:49.890Z,98699.27
2018-12-09T09:16:18.389Z,98695.99
2018-12-09T09:18:46.805Z,98703.81
2018-12-09T09:21:14.438Z,98703.12
2018-12-09T09:23:42.252Z,98699.45
2018-12-09T09:26:09.876Z,98720.19
2018-12-09T09:28:38.461Z,98718.42
2018-12-09T09:31:07.039Z,98713.08
2018-12-09T09:33:35.617Z,98725.59
2018-12-09T09:36:04.147Z,98721.60
2018-12-09T09:38:33.993Z,98722.90
2018-12-09T09:41:02.472Z,98719.66
2018-12-09T09:43:31.002Z,98719.19
2018-12-09T09:45:58.909Z,98727.60
2018-12-09T09:48:27.605Z,98730.98
2018-12-09T09:50:56.198Z,98729.44
2018-12-09T09:53:24.736Z,98725.62
2018-12-09T09:55:52.386Z,98734.92
2018-12-09T09:58:20.964Z,98738.80
2018-12-09T10:00:49.532Z,98741.41
2018-12-09T10:03:17.227Z,98739.76
2018-12-09T10:05:44.876Z,98744.87
2018-12-09T10:08:13.299Z,98756.72
2018-12-09T10:10:41.782Z,98741.64
2018-12-09T10:13:09.397Z,98743.57
2018-12-09T10:15:37.075Z,98749.00
2018-12-09T10:18:04.694Z,98743.41
2018-12-09T10:20:33.246Z,98737.73
2018-12-09T10:23:00.886Z,98744.64
2018-12-09T10:25:28.544Z,98742.64
2018-12-09T10:27:56.174Z,98753.23
2018-12-09T10:30:23.824Z,98746.52
2018-12-09T10:32:51.465Z,98751.41
2018-12-09T10:35:19.087Z,98753.41
2018-12-09T10:37:46.743Z,98746.68
2018-12-09T10:40:14.397Z,98760.70
2018-12-09T10:42:42.946Z,98749.52
2018-12-09T10:45:10.595Z,98757.41
2018-12-09T10:47:38.255Z,98752.88
2018-12-09T10:50:06.940Z,98769.22
2018-12-09T10:52:35.406Z,98761.52
2018-12-09T10:55:03.112Z,98767.56
2018-12-09T10:57:30.769Z,98770.16
2018-12-09T10:59:58.764Z,98761.85
2018-12-09T11:02:26.394Z,98761.81
2018-12-09T11:04:54.018Z,98760.73
2018-12-09T11:07:21.707Z,98770.33
2018-12-09T11:09:49.331Z,98769.33
2018-12-09T11:12:16.951Z,98766.45
2018-12-09T11:14:44.616Z,98766.54
2018-12-09T11:17:12.359Z,98761.53
2018-12-09T11:19:39.982Z,98763.73
2018-12-09T11:22:08.456Z,98757.38
2018-12-09T11:24:36.139Z,98767.34
2018-12-09T11:27:03.840Z,98778.41
2018-12-09T11:29:31.461Z,98771.45
2018-12-09T11:31:59.098Z,98775.28
2018-12-09T11:34:26.726Z,98770.93
2018-12-09T11:36:54.349Z,98777.39
2018-12-09T11:39:21.979Z,98775.17
2018-12-09T11:41:49.607Z,98786.38
2018-12-09T11:44:17.202Z,98787.19
2018-12-09T11:46:44.829Z,98780.87
2018-12-09T11:49:12.480Z,98783.78
2018-12-09T11:51:40.095Z,98781.70
2018-12-09T11:54:13.446Z,98787.41
2018-12-09T11:56:41.074Z,98789.30
2018-12-09T11:59:08.692Z,98789.64
2018-12-09T12:01:36.323Z,98778.62
2018-12-09T12:04:04.027Z,98774.22
2018-12-09T12:06:32.575Z,98785.55
2018-12-09T12:09:00.225Z,98784.89
2018-12-09T12:11:27.863Z,98783.58
2018-12-09T12:13:55.483Z,98792.56
2018-12-09T12:16:23.892Z,98790.16
2018-12-09T12:18:51.520Z,98792.75
2018-12-09T12:21:19.142Z,98791.52
2018-12-09T12:23:46.917Z,98798.09
2018-12-09T12:26:14.822Z,98802.19
2018-12-09T12:28:42.588Z,98794.67
2018-12-09T12:31:10.216Z,98794.12
2018-12-09T12:33:37.827Z,98796.84
2018-12-09T12:36:06.424Z,98797.79
2018-12-09T12:38:34.059Z,98803.75
2018-12-09T12:41:02.610Z,98815.38
2018-12-09T12:43:30.305Z,98820.34
2018-12-09T12:45:57.934Z,98824.80
2018-12-09T12:48:25.999Z,98835.28
2018-12-09T12:50:53.630Z,98833.38
2018-12-09T12:53:21.341Z,98838.50
2018-12-09T12:55:49.753Z,98842.28
2018-12-09T12:58:17.378Z,98843.40
2018-12-09T13:00:45.008Z,98845.92
2018-12-09T13:03:12.681Z,98850.09
2018-12-09T13:05:40.305Z,98846.86
2018-12-09T13:08:08.025Z,98843.22
2018-12-09T13:10:36.543Z,98846.20
2018-12-09T13:13:04.170Z,98847.69
2018-12-09T13:15:32.791Z,98855.75
2018-12-09T13:18:00.413Z,98858.05
2018-12-09T13:20:28.032Z,98858.78
2018-12-09T13:22:55.655Z,98852.77
2018-12-09T13:25:23.280Z,98873.32
2018-12-09T13:27:50.902Z,98864.83
2018-12-09T13:30:18.520Z,98862.88
2018-12-09T13:32:46.236Z,98881.38
2018-12-09T13:35:13.906Z,98881.75
2018-12-09T13:37:42.441Z,98887.76
2018-12-09T13:40:11.086Z,98887.13
2018-12-09T13:42:38.714Z,98890.02
2018-12-09T13:45:07.194Z,98899.08
2018-12-09T13:47:34.819Z,98898.15
2018-12-09T13:50:02.530Z,98909.55
2018-12-09T13:52:32.261Z,98915.82
2018-12-09T13:54:59.877Z,98916.10
2018-12-09T13:57:27.481Z,98914.53
2018-12-09T13:59:57.401Z,98922.11
2018-12-09T14:02:25.162Z,98921.77
2018-12-09T14:04:53.640Z,98921.03
2018-12-09T14:07:21.406Z,98921.85
2018-12-09T14:09:49.027Z,98923.25
2018-12-09T14:12:17.456Z,98928.13
2018-12-09T14:14:45.876Z,98935.45
2018-12-09T14:17:14.394Z,98932.03
2018-12-09T14:19:42.015Z,98940.25
2018-12-09T14:22:09.694Z,98935.70
2018-12-09T14:24:37.315Z,98935.99
2018-12-09T14:27:05.018Z,98940.61
2018-12-09T14:29:33.551Z,98943.30
2018-12-09T14:32:01.457Z,98939.85
2018-12-09T14:34:29.378Z,98937.36
2018-12-09T14:36:56.992Z,98947.16
2018-12-09T14:39:25.406Z,98944.50
2018-12-09T14:41:53.022Z,98957.52
2018-12-09T14:44:20.641Z,98954.92
2018-12-09T14:46:48.265Z,98948.19
2018-12-09T14:49:15.876Z,98954.59
2018-12-09T14:51:44.448Z,98957.89
2018-12-09T14:54:12.071Z,98960.75
2018-12-09T14:56:39.682Z,98962.87
2018-12-09T14:59:07.309Z,98966.66
2018-12-09T15:01:34.923Z,98962.47
2018-12-09T15:04:02.546Z,98964.36
2018-12-09T15:06:30.183Z,98967.95
2018-12-09T15:08:57.804Z,98970.14
2018-12-09T15:11:25.432Z,98967.84
2018-12-09T15:13:53.051Z,98968.48
2018-12-09T15:16:20.670Z,98971.44
2018-12-09T15:18:48.283Z,98973.66
2018-12-09T15:21:15.912Z,98980.86
2018-12-09T15:23:43.563Z,98986.04
2018-12-09T15:26:11.181Z,98987.06
2018-12-09T15:28:39.634Z,98980.59
2018-12-09T15:31:07.249Z,98988.98
2018-12-09T15:33:34.880Z,98995.56
2018-12-09T15:36:03.508Z,98989.56
2018-12-09T15:38:31.560Z,98993.89
2018-12-09T15:40:59.213Z,98994.07
2018-12-09T15:43:27.873Z,98994.63
2018-12-09T15:45:55.554Z,98999.50
2018-12-09T15:48:23.188Z,99006.80
2018-12-09T15:50:51.191Z,99006.29
2018-12-09T15:53:19.739Z,99016.02
2018-12-09T15:55:48.152Z,99019.63
2018-12-09T15:58:15.815Z,99022.38
2018-12-09T16:00:49.109Z,99029.73
2018-12-09T16:03:16.753Z,99032.69
2018-12-09T16:05:44.374Z,99033.87
2018-12-09T16:08:12.816Z,99036.73
2018-12-09T16:10:40.426Z,99036.94
2018-12-09T16:13:08.083Z,99038.59
2018-12-09T16:15:36.737Z,99041.53
2018-12-09T16:18:04.349Z,99046.11
2018-12-09T16:20:32.097Z,99051.84
2018-12-09T16:22:59.722Z,99052.58
2018-12-09T16:25:27.335Z,99057.39
2018-12-09T16:27:55.748Z,99060.48
2018-12-09T16:30:24.291Z,99058.16
2018-12-09T16:32:52.873Z,99053.76
2018-12-09T16:35:20.575Z,99056.14
2018-12-09T16:37:49.027Z,99058.20
2018-12-09T16:40:16.648Z,99061.53
2018-12-09T16:42:45.199Z,99066.55
2018-12-09T16:45:12.832Z,99070.47
2018-12-09T16:47:41.238Z,99079.07
2018-12-09T16:50:08.860Z,99073.33
2018-12-09T16:52:36.473Z,99079.74
2018-12-09T16:55:05.462Z,99080.58
2018-12-09T16:57:34.032Z,99084.31
2018-12-09T17:00:02.672Z,99086.91
2018-12-09T17:02:31.598Z,99085.15
2018-12-09T17:05:00.012Z,99093.22
2018-12-09T17:07:28.560Z,99096.55
2018-12-09T17:09:56.955Z,99105.66
2018-12-09T17:12:25.510Z,99100.66
2018-12-09T17:14:53.907Z,99100.08
2018-12-09T17:17:21.526Z,99118.82
2018-12-09T17:19:49.186Z,99112.56
2018-12-09T17:22:16.821Z,99119.98
2018-12-09T17:24:44.486Z,99122.33
2018-12-09T17:27:12.924Z,99130.86
2018-12-09T17:29:40.550Z,99128.84
2018-12-09T17:32:09.089Z,99131.13
2018-12-09T17:34:36.706Z,99137.45
2018-12-09T17:37:05.171Z,99141.03
2018-12-09T17:39:34.593Z,99145.00
2018-12-09T17:42:03.985Z,99139.36
2018-12-09T17:44:32.473Z,99144.05
2018-12-09T17:47:01.029Z,99144.45
2018-12-09T17:49:29.482Z,99144.27
2018-12-09T17:51:57.095Z,99159.28
2018-12-09T17:54:25.643Z,99163.84
2018-12-09T17:56:53.255Z,99174.97
2018-12-09T17:59:20.873Z,99181.22
2018-12-09T18:01:48.488Z,99172.56
2018-12-09T18:04:16.103Z,99183.34
2018-12-09T18:06:43.779Z,99191.18
2018-12-09T18:09:12.356Z,99185.05
2018-12-09T18:11:39.976Z,99197.16
2018-12-09T18:14:07.620Z,99205.91
2018-12-09T18:16:35.238Z,99199.44
2018-12-09T18:19:03.719Z,99225.08
2018-12-09T18:21:32.762Z,99215.80
2018-12-09T18:24:00.379Z,99222.58
2018-12-09T18:26:28.065Z,99224.39
2018-12-09T18:28:56.509Z,99227.66
2018-12-09T18:31:24.283Z,99221.94
2018-12-09T18:33:51.986Z,99223.87
2018-12-09T18:36:20.810Z,99231.86
2018-12-09T18:38:49.995Z,99247.21
2018-12-09T18:41:17.623Z,99244.10
2018-12-09T18:43:46.156Z,99257.33
2018-12-09T18:46:14.724Z,99264.20
2018-12-09T18:48:42.370Z,99253.44
2018-12-09T18:51:09.959Z,99257.27
2018-12-09T18:53:37.590Z,99263.98
2018-12-09T18:56:05.283Z,99272.73
2018-12-09T18:58:33.721Z,99268.23
2018-12-09T19:01:03.423Z,99281.70
2018-12-09T19:03:31.937Z,99289.34
2018-12-09T19:05:59.549Z,99277.78
2018-12-09T19:08:27.347Z,99284.25
2018-12-09T19:10:54.955Z,99281.57
2018-12-09T19:13:22.606Z,99288.48
2018-12-09T19:15:50.233Z,99300.83
2018-12-09T19:18:18.795Z,99299.30
2018-12-09T19:20:47.316Z,99310.81
2018-12-09T19:23:15.865Z,99309.89
2018-12-09T19:25:43.705Z,99313.00
2018-12-09T19:28:12.244Z,99320.47
2018-12-09T19:30:47.933Z,99330.83
2018-12-09T19:33:09.537Z,99330.96
2018-12-09T19:35:37.163Z,99328.94
2018-12-09T19:38:04.780Z,99337.45
2018-12-09T19:40:32.445Z,99340.72
2018-12-09T19:43:00.069Z,99345.20
2018-12-09T19:45:27.692Z,99346.27
2018-12-09T19:47:56.574Z,99357.84
2018-12-09T19:50:24.267Z,99359.13
2018-12-09T19:52:52.675Z,99357.09
2018-12-09T19:55:20.325Z,99358.91
2018-12-09T19:57:47.957Z,99367.14
2018-12-09T20:00:15.610Z,99366.30
2018-12-09T20:02:44.221Z,99380.92
2018-12-09T20:05:12.370Z,99374.44
2018-12-09T20:07:40.028Z,99379.34
2018-12-09T20:10:08.002Z,99387.34
2018-12-09T20:12:35.640Z,99394.19
2018-12-09T20:15:04.512Z,99403.16
2018-12-09T20:17:33.689Z,99402.33
2018-12-09T20:20:02.822Z,99404.31
2018-12-09T20:22:30.443Z,99414.52
2018-12-09T20:24:59.042Z,99417.63
2018-12-09T20:27:28.005Z,99406.61
2018-12-09T20:29:57.222Z,99416.28
2018-12-09T20:32:24.847Z,99426.92
2018-12-09T20:34:52.468Z,99429.92
2018-12-09T20:37:20.120Z,99433.02
2018-12-09T20:39:47.744Z,99432.19
2018-12-09T20:42:16.302Z,99442.91
2018-12-09T20:44:43.987Z,99442.68
2018-12-09T20:47:12.421Z,99434.39
2018-12-09T20:49:40.867Z,99449.98
2018-12-09T20:52:08.488Z,99456.46
2018-12-09T20:54:36.110Z,99455.11
2018-12-09T20:57:03.801Z,99467.22
2018-12-09T20:59:33.030Z,99471.39
2018-12-09T21:02:00.659Z,99480.16
2018-12-09T21:04:28.356Z,99482.80
2018-12-09T21:06:55.980Z,99473.83
2018-12-09T21:09:24.452Z,99475.34
2018-12-09T21:11:52.914Z,99490.66
2018-12-09T21:14:21.909Z,99480.22
2018-12-09T21:16:49.735Z,99485.10
2018-12-09T21:19:17.391Z,99495.84
2018-12-09T21:21:45.037Z,99499.95
2018-12-09T21:24:12.690Z,99508.45
2018-12-09T21:26:40.311Z,99505.58
2018-12-09T21:29:07.955Z,99506.17
2018-12-09T21:31:35.574Z,99503.02
2018-12-09T21:34:03.775Z,99513.00
2018-12-09T21:36:32.861Z,99520.22
2018-12-09T21:39:00.511Z,99549.81
2018-12-09T21:41:28.928Z,99538.14
2018-12-09T21:43:57.494Z,99544.14
2018-12-09T21:46:25.183Z,99569.10
2018-12-09T21:48:53.637Z,99562.42
2018-12-09T21:51:22.051Z,99566.30
2018-12-09T21:53:49.720Z,99564.05
2018-12-09T21:56:17.369Z,99582.16
2018-12-09T21:58:45.029Z,99582.78
2018-12-09T22:01:12.650Z,99578.53
2018-12-09T22:03:40.310Z,99595.56
2018-12-09T22:06:07.932Z,99594.27
2018-12-09T22:08:35.596Z,99588.76
2018-12-09T22:11:04.163Z,99604.00
2018-12-09T22:13:32.709Z,99607.95
2018-12-09T22:16:00.396Z,99616.18
2018-12-09T22:18:28.022Z,99601.44
2018-12-09T22:20:55.684Z,99627.57
2018-12-09T22:23:23.305Z,99621.23
2018-12-09T22:25:51.261Z,99628.98
2018-12-09T22:28:18.880Z,99635.03
2018-12-09T22:30:46.510Z,99627.52
2018-12-09T22:33:14.130Z,99640.84
2018-12-09T22:35:41.848Z,99647.30
2018-12-09T22:38:09.467Z,99642.79
2018-12-09T22:40:37.183Z,99651.59
2018-12-09T22:43:04.862Z,99655.14
2018-12-09T22:45:32.518Z,99669.00
2018-12-09T22:48:00.131Z,99677.67
2018-12-09T22:50:27.835Z,99672.81
2018-12-09T22:52:56.459Z,99682.31
2018-12-09T22:55:24.887Z,99681.02
2018-12-09T22:57:53.518Z,99683.68
2018-12-09T23:00:23.796Z,99677.41
2018-12-09T23:03:03.450Z,99686.59
2018-12-09T23:05:32.386Z,99696.36
2018-12-09T23:08:00.001Z,99695.98
2018-12-09T23:10:28.572Z,99701.77
2018-12-09T23:12:56.196Z,99712.12
2018-12-09T23:15:24.041Z,99698.36
2018-12-09T23:17:52.470Z,99706.05
2018-12-09T23:20:20.087Z,99718.02
2018-12-09T23:22:48.503Z,99730.23
2018-12-09T23:25:16.922Z,99726.42
2018-12-09T23:27:44.576Z,99732.17
2018-12-09T23:30:13.118Z,99743.47
2018-12-09T23:32:41.524Z,99749.23
2018-12-09T23:35:09.965Z,99754.83
2018-12-09T23:37:38.375Z,99760.53
2018-12-09T23:40:07.148Z,99757.42
2018-12-09T23:42:35.542Z,99776.99
2018-12-09T23:45:04.340Z,99772.62
2018-12-09T23:47:33.016Z,99774.66
2018-12-09T23:50:02.660Z,99777.88
2018-12-09T23:52:30.272Z,99780.58
2018-12-09T23:54:57.903Z,99787.95
2018-12-09T23:57:26.385Z,99789.88
2018-12-09T23:59:55.306Z,99800.34
